Time,TemperatureF,DewpointF,PressureIn,WindDirection,WindDirectionDegrees,WindSpeedMPH,WindSpeedGustMPH,Humidity,HourlyPrecipIn,Conditions,Clouds,dailyrainin,SolarRadiationWatts/m^2,SoftwareType,DateUTC
2013-06-17 00:22:00,54.0,52.0,-100.00,East,99,19.0,29.0,94,0.00,,,-99.99,0.000000,,2013-06-17 10:22:00,
2013-06-17 00:33:00,54.0,52.0,-100.00,East,99,19.0,29.0,94,0.00,,,-99.99,0.000000,,2013-06-17 10:33:00,
2013-06-17 00:42:00,54.0,52.0,-100.00,East,99,19.0,29.0,94,0.00,,,-99.99,0.000000,,2013-06-17 10:42:00,
2013-06-17 00:53:00,54.0,52.0,-100.00,East,99,19.0,29.0,94,0.00,,,-99.99,0.000000,,2013-06-17 10:53:00,
2013-06-17 01:23:00,52.0,51.0,-100.00,ESE,105,15.0,27.0,95,0.00,,,0.00,0.000000,,2013-06-17 11:23:00,
2013-06-17 01:33:00,52.0,51.0,-100.00,ESE,105,15.0,27.0,95,0.00,,,0.00,0.000000,,2013-06-17 11:33:00,
2013-06-17 01:43:00,52.0,51.0,-100.00,ESE,105,15.0,27.0,95,0.00,,,0.00,0.000000,,2013-06-17 11:43:00,
2013-06-17 01:53:00,52.0,51.0,-100.00,ESE,105,15.0,27.0,95,0.00,,,0.00,0.000000,,2013-06-17 11:53:00,
2013-06-17 02:22:00,52.0,51.0,-100.00,ESE,105,18.0,26.0,96,0.00,,,0.00,0.000000,,2013-06-17 12:22:00,
2013-06-17 02:33:00,52.0,51.0,-100.00,ESE,105,18.0,26.0,96,0.00,,,0.00,0.000000,,2013-06-17 12:33:00,
2013-06-17 02:43:00,52.0,51.0,-100.00,ESE,105,18.0,26.0,96,0.00,,,0.00,0.000000,,2013-06-17 12:43:00,
2013-06-17 02:53:00,52.0,51.0,-100.00,ESE,105,18.0,26.0,96,0.00,,,0.00,0.000000,,2013-06-17 12:53:00,
2013-06-17 03:22:00,52.0,51.0,-100.00,ESE,103,19.0,31.0,96,0.00,,,0.00,0.000000,,2013-06-17 13:22:00,
2013-06-17 03:32:00,52.0,51.0,-100.00,ESE,103,19.0,31.0,96,0.00,,,0.00,0.000000,,2013-06-17 13:32:00,
2013-06-17 03:43:00,52.0,51.0,-100.00,ESE,103,19.0,31.0,96,0.00,,,0.00,0.000000,,2013-06-17 13:43:00,
2013-06-17 03:52:00,52.0,51.0,-100.00,ESE,103,19.0,31.0,96,0.00,,,0.00,0.000000,,2013-06-17 13:52:00,
2013-06-17 04:22:00,52.0,51.0,-100.00,ESE,109,16.0,27.0,96,0.00,,,0.00,0.000000,,2013-06-17 14:22:00,
2013-06-17 04:34:00,52.0,51.0,-100.00,ESE,109,16.0,27.0,96,0.00,,,0.00,0.000000,,2013-06-17 14:34:00,
2013-06-17 04:43:00,52.0,51.0,-100.00,ESE,109,16.0,27.0,96,0.00,,,0.00,0.000000,,2013-06-17 14:43:00,
2013-06-17 04:53:00,52.0,51.0,-100.00,ESE,109,16.0,27.0,96,0.00,,,0.00,0.000000,,2013-06-17 14:53:00,
2013-06-17 05:33:00,53.0,52.0,-100.00,East,97,18.0,26.0,96,0.00,,,0.00,0.000000,,2013-06-17 15:33:00,
2013-06-17 05:43:00,53.0,52.0,-100.00,East,97,18.0,26.0,96,0.00,,,0.00,0.000000,,2013-06-17 15:43:00,
2013-06-17 05:52:00,53.0,52.0,-100.00,East,97,18.0,26.0,96,0.00,,,0.00,0.000000,,2013-06-17 15:52:00,
2013-06-17 06:22:00,53.0,52.0,-100.00,ESE,104,14.0,27.0,96,0.00,,,0.00,2.000000,,2013-06-17 16:22:00,
2013-06-17 06:33:00,53.0,52.0,-100.00,ESE,104,14.0,27.0,96,0.00,,,0.00,2.000000,,2013-06-17 16:33:00,
2013-06-17 06:43:00,53.0,52.0,-100.00,ESE,104,14.0,27.0,96,0.00,,,0.00,2.000000,,2013-06-17 16:43:00,
2013-06-17 06:53:00,53.0,52.0,-100.00,ESE,104,14.0,27.0,96,0.00,,,0.00,2.000000,,2013-06-17 16:53:00,
2013-06-17 07:22:00,53.0,51.0,-100.00,ESE,106,16.0,26.0,94,0.00,,,0.00,152.000000,,2013-06-17 17:22:00,
2013-06-17 07:33:00,53.0,51.0,-100.00,ESE,106,16.0,26.0,94,0.00,,,0.00,152.000000,,2013-06-17 17:33:00,
2013-06-17 07:43:00,53.0,51.0,-100.00,ESE,106,16.0,26.0,94,0.00,,,0.00,152.000000,,2013-06-17 17:43:00,
2013-06-17 07:52:00,53.0,51.0,-100.00,ESE,106,16.0,26.0,94,0.00,,,0.00,152.000000,,2013-06-17 17:52:00,
2013-06-17 08:23:00,55.0,52.0,-100.00,East,101,18.0,27.0,89,0.00,,,0.00,403.000000,,2013-06-17 18:23:00,
2013-06-17 08:33:00,55.0,52.0,-100.00,East,101,18.0,27.0,89,0.00,,,0.00,403.000000,,2013-06-17 18:33:00,
2013-06-17 08:42:00,55.0,52.0,-100.00,East,101,18.0,27.0,89,0.00,,,0.00,403.000000,,2013-06-17 18:42:00,
2013-06-17 08:53:00,55.0,52.0,-100.00,East,101,18.0,27.0,89,0.00,,,0.00,403.000000,,2013-06-17 18:53:00,
2013-06-17 09:22:00,58.0,53.0,-100.00,East,89,15.0,25.0,83,0.00,,,0.00,711.000000,,2013-06-17 19:22:00,
2013-06-17 09:33:00,58.0,53.0,-100.00,East,89,15.0,25.0,83,0.00,,,0.00,711.000000,,2013-06-17 19:33:00,
2013-06-17 09:43:00,58.0,53.0,-100.00,East,89,15.0,25.0,83,0.00,,,0.00,711.000000,,2013-06-17 19:43:00,
2013-06-17 09:53:00,58.0,53.0,-100.00,East,89,15.0,25.0,83,0.00,,,0.00,711.000000,,2013-06-17 19:53:00,
2013-06-17 10:22:00,63.0,53.0,-100.00,East,92,8.0,21.0,69,0.00,,,0.00,984.000000,,2013-06-17 20:22:00,
2013-06-17 10:34:00,63.0,53.0,-100.00,East,92,8.0,21.0,69,0.00,,,0.00,984.000000,,2013-06-17 20:34:00,
2013-06-17 10:43:00,63.0,53.0,-100.00,East,92,8.0,21.0,69,0.00,,,0.00,984.000000,,2013-06-17 20:43:00,
2013-06-17 10:52:00,63.0,53.0,-100.00,East,92,8.0,21.0,69,0.00,,,0.00,984.000000,,2013-06-17 20:52:00,
2013-06-17 13:32:00,72.0,52.0,-100.00,NW,307,9.0,23.0,49,0.00,,,0.00,1204.000000,,2013-06-17 23:32:00,
2013-06-17 13:42:00,72.0,52.0,-100.00,NW,307,9.0,23.0,49,0.00,,,0.00,1204.000000,,2013-06-17 23:42:00,
2013-06-17 13:52:00,72.0,52.0,-100.00,NW,307,9.0,23.0,49,0.00,,,0.00,1204.000000,,2013-06-17 23:52:00,
2013-06-17 14:32:00,69.0,53.0,-100.00,NW,306,11.0,25.0,56,0.00,,,0.00,1217.000000,,2013-06-18 00:32:00,
2013-06-17 14:43:00,69.0,53.0,-100.00,NW,306,11.0,25.0,56,0.00,,,0.00,1217.000000,,2013-06-18 00:43:00,
2013-06-17 14:52:00,69.0,53.0,-100.00,NW,306,11.0,25.0,56,0.00,,,0.00,1217.000000,,2013-06-18 00:52:00,
2013-06-17 15:23:00,69.0,54.0,-100.00,NE,47,5.0,20.0,58,0.00,,,0.00,919.000000,,2013-06-18 01:23:00,
2013-06-17 15:34:00,69.0,54.0,-100.00,NE,47,5.0,20.0,58,0.00,,,0.00,919.000000,,2013-06-18 01:34:00,
2013-06-17 15:44:00,69.0,54.0,-100.00,NE,47,5.0,20.0,58,0.00,,,0.00,919.000000,,2013-06-18 01:44:00,
2013-06-17 15:53:00,69.0,54.0,-100.00,NE,47,5.0,20.0,58,0.00,,,0.00,919.000000,,2013-06-18 01:53:00,
2013-06-17 16:22:00,66.0,55.0,-100.00,WNW,291,8.0,18.0,67,0.00,,,0.00,610.000000,,2013-06-18 02:22:00,
2013-06-17 16:34:00,66.0,55.0,-100.00,WNW,291,8.0,18.0,67,0.00,,,0.00,610.000000,,2013-06-18 02:34:00,
2013-06-17 16:43:00,66.0,55.0,-100.00,WNW,291,8.0,18.0,67,0.00,,,0.00,610.000000,,2013-06-18 02:43:00,
2013-06-17 16:53:00,66.0,55.0,-100.00,WNW,291,8.0,18.0,67,0.00,,,0.00,610.000000,,2013-06-18 02:53:00,
2013-06-17 17:23:00,65.0,55.0,-100.00,East,91,10.0,18.0,70,0.00,,,0.00,228.000000,,2013-06-18 03:23:00,
2013-06-17 17:34:00,65.0,55.0,-100.00,East,91,10.0,18.0,70,0.00,,,0.00,228.000000,,2013-06-18 03:34:00,
2013-06-17 17:42:00,65.0,55.0,-100.00,East,91,10.0,18.0,70,0.00,,,0.00,228.000000,,2013-06-18 03:42:00,
2013-06-17 17:53:00,65.0,55.0,-100.00,East,91,10.0,18.0,70,0.00,,,0.00,228.000000,,2013-06-18 03:53:00,
2013-06-17 18:22:00,63.0,53.0,-100.00,East,98,12.0,18.0,70,0.00,,,0.00,98.000000,,2013-06-18 04:22:00,
2013-06-17 18:34:00,63.0,53.0,-100.00,East,98,12.0,18.0,70,0.00,,,0.00,98.000000,,2013-06-18 04:34:00,
2013-06-17 18:43:00,63.0,53.0,-100.00,East,98,12.0,18.0,70,0.00,,,0.00,98.000000,,2013-06-18 04:43:00,
2013-06-17 18:53:00,63.0,53.0,-100.00,East,98,12.0,18.0,70,0.00,,,0.00,98.000000,,2013-06-18 04:53:00,
2013-06-17 19:22:00,57.0,52.0,-100.00,ESE,106,13.0,22.0,84,0.00,,,0.00,75.000000,,2013-06-18 05:22:00,
2013-06-17 19:33:00,57.0,52.0,-100.00,ESE,106,13.0,22.0,84,0.00,,,0.00,75.000000,,2013-06-18 05:33:00,
2013-06-17 19:43:00,57.0,52.0,-100.00,ESE,106,13.0,22.0,84,0.00,,,0.00,75.000000,,2013-06-18 05:43:00,
2013-06-17 19:53:00,57.0,52.0,-100.00,ESE,106,13.0,22.0,84,0.00,,,0.00,75.000000,,2013-06-18 05:53:00,
2013-06-17 20:32:00,54.0,51.0,-100.00,East,94,16.0,24.0,90,0.00,,,-99.99,0.000000,,2013-06-18 06:32:00,
2013-06-17 20:43:00,54.0,51.0,-100.00,East,94,16.0,24.0,90,0.00,,,-99.99,0.000000,,2013-06-18 06:43:00,
2013-06-17 20:52:00,54.0,51.0,-100.00,East,94,16.0,24.0,90,0.00,,,-99.99,0.000000,,2013-06-18 06:52:00,
2013-06-17 21:22:00,52.0,49.0,-100.00,East,101,21.0,30.0,91,0.00,,,0.00,0.000000,,2013-06-18 07:22:00,
2013-06-17 21:33:00,52.0,49.0,-100.00,East,101,21.0,30.0,91,0.00,,,0.00,0.000000,,2013-06-18 07:33:00,
2013-06-17 21:43:00,52.0,49.0,-100.00,East,101,21.0,30.0,91,0.00,,,0.00,0.000000,,2013-06-18 07:43:00,
2013-06-17 21:52:00,52.0,49.0,-100.00,East,101,21.0,30.0,91,0.00,,,0.00,0.000000,,2013-06-18 07:52:00,
2013-06-17 22:23:00,52.0,50.0,-100.00,ESE,105,19.0,29.0,92,0.00,,,0.00,0.000000,,2013-06-18 08:23:00,
2013-06-17 22:32:00,52.0,50.0,-100.00,ESE,105,19.0,29.0,92,0.00,,,0.00,0.000000,,2013-06-18 08:32:00,
2013-06-17 22:43:00,52.0,50.0,-100.00,ESE,105,19.0,29.0,92,0.00,,,0.00,0.000000,,2013-06-18 08:43:00,
2013-06-17 22:52:00,52.0,50.0,-100.00,ESE,105,19.0,29.0,92,0.00,,,0.00,0.000000,,2013-06-18 08:52:00,
2013-06-17 23:22:00,52.0,50.0,-100.00,ESE,109,17.0,30.0,93,0.00,,,0.00,0.000000,,2013-06-18 09:22:00,
2013-06-17 23:34:00,52.0,50.0,-100.00,ESE,109,17.0,30.0,93,0.00,,,0.00,0.000000,,2013-06-18 09:34:00,
2013-06-17 23:42:00,52.0,50.0,-100.00,ESE,109,17.0,30.0,93,0.00,,,0.00,0.000000,,2013-06-18 09:42:00,
2013-06-17 23:53:00,52.0,50.0,-100.00,ESE,109,17.0,30.0,93,0.00,,,0.00,0.000000,,2013-06-18 09:53:00,